Time;durP1;ratioP1;P1;durP2;ratioP2;P2;SDS_P1;SDS_P2;PMS_P1;PMS_P2;Temp;Humidity;BMP_temperature;BMP_pressure;BME280_temperature;BME280_humidity;BME280_pressure;Samples;Min_cycle;Max_cycle;Signal;HPM_P1;HPM_P2
2022/05/30 00:01:32;;;;;;;11.10;3.35;;;24.10;87.80;;;;;;5052855;28;20517;-72
2022/05/30 00:03:58;;;;;;;11.95;3.47;;;24.00;87.90;;;;;;5052837;28;20021;-71
2022/05/30 00:06:25;;;;;;;17.13;4.22;;;24.00;88.00;;;;;;5052959;28;20107;-70
2022/05/30 00:08:51;;;;;;;12.55;4.15;;;23.90;88.70;;;;;;5052881;28;20029;-70
2022/05/30 00:11:17;;;;;;;16.63;4.10;;;23.90;88.50;;;;;;5053036;28;20032;-70
2022/05/30 00:13:43;;;;;;;11.82;3.92;;;23.80;88.60;;;;;;5052594;28;20371;-71
2022/05/30 00:16:12;;;;;;;16.60;4.13;;;23.80;89.20;;;;;;5052496;28;20021;-70
2022/05/30 00:18:38;;;;;;;12.73;3.63;;;23.80;88.90;;;;;;5034555;28;20482;-70
2022/05/30 00:21:05;;;;;;;15.02;3.47;;;23.80;89.10;;;;;;5052636;28;20029;-71
2022/05/30 00:23:30;;;;;;;13.50;3.83;;;23.80;88.80;;;;;;5052700;28;20059;-70
2022/05/30 00:25:56;;;;;;;26.30;4.32;;;23.80;88.90;;;;;;5052783;28;20044;-71
2022/05/30 00:28:22;;;;;;;14.93;4.00;;;23.80;89.00;;;;;;5052610;28;20116;-70
2022/05/30 00:30:49;;;;;;;11.02;3.25;;;23.80;88.80;;;;;;5034431;28;20029;-71
2022/05/30 00:33:15;;;;;;;17.17;3.67;;;23.80;88.70;;;;;;5052405;28;20032;-71
2022/05/30 00:35:42;;;;;;;12.25;3.90;;;23.80;88.70;;;;;;5052610;28;20139;-71
2022/05/30 00:38:08;;;;;;;14.48;3.90;;;23.80;88.90;;;;;;5052410;28;20048;-71
2022/05/30 00:40:36;;;;;;;14.02;4.20;;;23.80;89.10;;;;;;5052347;28;20362;-72
2022/05/30 00:43:27;;;;;;;14.45;3.70;;;23.80;88.90;;;;;;5034649;28;20159;-71
2022/05/30 00:45:55;;;;;;;11.73;3.17;;;23.70;89.70;;;;;;5052824;28;20025;-71
2022/05/30 00:48:26;;;;;;;11.18;3.65;;;23.70;89.70;;;;;;5052546;28;20473;-71
2022/05/30 00:50:56;;;;;;;13.20;4.30;;;23.60;89.60;;;;;;5052117;28;20110;-71
2022/05/30 00:53:22;;;;;;;16.40;3.72;;;23.60;89.40;;;;;;5052526;28;20509;-70
2022/05/30 00:55:49;;;;;;;13.15;4.18;;;23.60;89.60;;;;;;5034469;28;20017;-70
2022/05/30 00:58:17;;;;;;;11.20;3.70;;;23.60;89.70;;;;;;5034567;28;20417;-70
2022/05/30 01:00:43;;;;;;;17.92;3.90;;;23.60;89.90;;;;;;5052213;28;20477;-71
2022/05/30 01:08:38;;;;;;;16.85;3.90;;;23.60;90.00;;;;;;5052231;28;20056;-71
2022/05/30 01:11:04;;;;;;;16.25;4.25;;;23.50;90.20;;;;;;5055110;28;20025;-70
2022/05/30 01:13:29;;;;;;;15.95;4.10;;;23.50;90.40;;;;;;5056138;28;20413;-71
2022/05/30 01:15:56;;;;;;;14.45;4.18;;;23.50;90.50;;;;;;5055939;28;20025;-70
2022/05/30 01:18:27;;;;;;;16.30;4.05;;;23.50;90.60;;;;;;5056037;28;20055;-71
2022/05/30 01:21:01;;;;;;;10.85;4.15;;;23.50;90.60;;;;;;5037803;28;20528;-71
2022/05/30 01:23:49;;;;;;;21.98;5.25;;;23.50;90.60;;;;;;5055833;28;20025;-71
2022/05/30 01:26:17;;;;;;;18.15;4.55;;;23.50;90.70;;;;;;5055752;28;20462;-70
2022/05/30 01:29:04;;;;;;;16.88;4.35;;;23.50;90.90;;;;;;5055785;28;20067;-70
2022/05/30 01:31:30;;;;;;;18.17;4.57;;;23.60;90.80;;;;;;5055864;28;20033;-69
2022/05/30 01:33:56;;;;;;;13.80;4.15;;;23.60;90.60;;;;;;5056401;28;20056;-70
2022/05/30 01:36:25;;;;;;;15.48;4.57;;;23.60;90.80;;;;;;5055743;28;20474;-70
2022/05/30 01:38:50;;;;;;;13.80;4.50;;;23.60;90.80;;;;;;5055549;28;20079;-70
2022/05/30 01:41:17;;;;;;;16.35;4.28;;;23.60;90.80;;;;;;5055267;28;20025;-71
2022/05/30 01:43:45;;;;;;;14.25;4.20;;;23.60;90.80;;;;;;5055600;28;20031;-71
2022/05/30 01:46:17;;;;;;;22.13;4.88;;;23.60;90.80;;;;;;5055565;28;20142;-71
2022/05/30 01:48:45;;;;;;;18.85;5.13;;;23.60;91.00;;;;;;5055489;28;20033;-71
2022/05/30 01:51:13;;;;;;;13.68;4.43;;;23.60;90.90;;;;;;5055135;28;20037;-71
2022/05/30 01:53:39;;;;;;;17.15;4.13;;;23.60;90.80;;;;;;5055393;28;20482;-71
2022/05/30 01:56:05;;;;;;;15.48;4.30;;;23.60;90.80;;;;;;5037956;28;20021;-71
2022/05/30 01:58:32;;;;;;;14.38;4.18;;;23.50;90.80;;;;;;5037323;28;20044;-71
2022/05/30 02:01:02;;;;;;;17.45;4.90;;;23.50;90.70;;;;;;5055187;28;20070;-70
2022/05/30 02:03:30;;;;;;;16.08;4.07;;;23.50;90.70;;;;;;5055723;28;20074;-70
2022/05/30 02:05:56;;;;;;;18.85;4.50;;;23.50;90.80;;;;;;5055202;28;20029;-70
2022/05/30 02:08:22;;;;;;;16.48;4.63;;;23.50;90.70;;;;;;5055019;28;20111;-70
2022/05/30 02:10:48;;;;;;;25.85;5.28;;;23.50;90.60;;;;;;5055085;28;20413;-70
2022/05/30 02:13:14;;;;;;;19.67;5.05;;;23.40;90.80;;;;;;5055105;28;20443;-70
2022/05/30 02:18:24;;;;;;;15.07;4.80;;;23.30;91.20;;;;;;5054769;28;20056;-71
2022/05/30 02:20:50;;;;;;;18.98;4.85;;;23.30;91.20;;;;;;5054507;28;20018;-71
2022/05/30 02:23:17;;;;;;;15.70;4.63;;;23.30;91.20;;;;;;5054915;28;20028;-71
2022/05/30 02:25:43;;;;;;;14.60;4.20;;;23.30;91.20;;;;;;5054699;28;20056;-71
2022/05/30 02:28:09;;;;;;;15.88;3.95;;;23.30;91.30;;;;;;5055025;28;20461;-71
2022/05/30 02:30:35;;;;;;;17.73;4.90;;;23.40;91.20;;;;;;5054630;28;20086;-70
2022/05/30 02:38:29;;;;;;;18.58;4.70;;;23.40;91.10;;;;;;5054848;28;20496;-71
2022/05/30 02:40:55;;;;;;;16.02;4.60;;;23.40;90.90;;;;;;5054349;28;20025;-71
2022/05/30 02:43:20;;;;;;;16.48;5.07;;;23.30;90.80;;;;;;5054361;28;20139;-71
2022/05/30 02:45:46;;;;;;;24.05;5.88;;;23.40;90.90;;;;;;5054594;28;20036;-71
2022/05/30 02:48:12;;;;;;;19.85;5.03;;;23.30;90.70;;;;;;5054287;28;20588;-70
2022/05/30 02:50:38;;;;;;;16.30;4.43;;;23.30;90.80;;;;;;5054165;28;20090;-70
2022/05/30 02:53:04;;;;;;;19.85;4.38;;;23.20;91.00;;;;;;5054358;28;20025;-71
2022/05/30 02:55:30;;;;;;;17.90;4.20;;;23.20;91.10;;;;;;5054258;28;20076;-71
2022/05/30 02:57:55;;;;;;;21.58;4.57;;;23.20;91.10;;;;;;5054195;28;20032;-70
2022/05/30 03:00:21;;;;;;;15.10;4.45;;;23.30;90.80;;;;;;5053993;28;20513;-70
2022/05/30 03:02:47;;;;;;;17.88;4.40;;;23.30;90.40;;;;;;5053996;28;20044;-70
2022/05/30 03:05:12;;;;;;;18.23;4.75;;;23.30;90.30;;;;;;5053887;28;20043;-70
2022/05/30 03:07:38;;;;;;;19.52;4.85;;;23.40;90.30;;;;;;5053724;28;20481;-71
2022/05/30 03:10:04;;;;;;;19.42;4.53;;;23.40;90.10;;;;;;5053997;28;20108;-71
2022/05/30 03:12:30;;;;;;;14.75;4.38;;;23.30;90.10;;;;;;5054205;28;20401;-70
2022/05/30 03:14:56;;;;;;;12.98;4.30;;;23.30;90.10;;;;;;5053725;28;20104;-71
2022/05/30 03:17:21;;;;;;;14.77;4.18;;;23.30;90.20;;;;;;5053867;28;20502;-70
2022/05/30 03:19:50;;;;;;;9.70;3.50;;;23.30;90.00;;;;;;5053455;28;20032;-70
2022/05/30 03:22:15;;;;;;;15.98;4.30;;;23.30;90.20;;;;;;5053570;28;20123;-71
2022/05/30 03:24:41;;;;;;;15.15;4.63;;;23.30;90.00;;;;;;5053532;28;20462;-70
2022/05/30 03:27:07;;;;;;;18.98;4.45;;;23.20;90.10;;;;;;5053456;28;20458;-70
2022/05/30 03:29:32;;;;;;;13.65;4.60;;;23.20;90.10;;;;;;5053503;28;20451;-70
2022/05/30 03:31:58;;;;;;;15.75;4.75;;;23.20;90.10;;;;;;5053075;28;20429;-71
2022/05/30 03:34:24;;;;;;;19.13;4.82;;;23.20;90.10;;;;;;5053111;28;20119;-70
2022/05/30 03:36:49;;;;;;;19.65;4.90;;;23.20;90.20;;;;;;5035402;28;20117;-70
2022/05/30 03:39:15;;;;;;;16.00;3.97;;;23.20;90.10;;;;;;5053359;28;20017;-70
2022/05/30 03:41:41;;;;;;;21.95;4.72;;;23.20;90.10;;;;;;5053568;28;20405;-70
2022/05/30 03:44:07;;;;;;;15.98;4.15;;;23.30;90.00;;;;;;5053444;28;20158;-70
2022/05/30 03:46:32;;;;;;;23.42;4.43;;;23.30;90.00;;;;;;5053262;28;20112;-71
2022/05/30 03:48:58;;;;;;;13.98;4.28;;;23.30;89.70;;;;;;5035193;28;20406;-71
2022/05/30 03:51:24;;;;;;;23.33;5.50;;;23.40;89.90;;;;;;5052875;28;20048;-70
2022/05/30 03:53:51;;;;;;;17.58;5.18;;;23.40;89.70;;;;;;5052908;28;20107;-70
2022/05/30 03:56:19;;;;;;;15.68;4.47;;;23.30;89.70;;;;;;5053025;28;20024;-70
2022/05/30 03:58:45;;;;;;;15.95;4.25;;;23.30;89.30;;;;;;5053095;28;20063;-70
2022/05/30 04:01:10;;;;;;;15.18;4.85;;;23.30;89.70;;;;;;5052964;28;20435;-71
2022/05/30 04:03:37;;;;;;;14.55;4.80;;;23.30;89.60;;;;;;5035369;28;20086;-71
2022/05/30 04:06:03;;;;;;;19.15;4.78;;;23.30;89.50;;;;;;5052845;28;20040;-71
2022/05/30 04:08:30;;;;;;;17.42;4.28;;;23.40;89.50;;;;;;5053201;28;20025;-70
2022/05/30 04:10:56;;;;;;;16.52;3.95;;;23.40;89.40;;;;;;5052857;28;20033;-71
2022/05/30 04:13:21;;;;;;;12.82;3.67;;;23.40;89.50;;;;;;5052950;28;20106;-70
2022/05/30 04:15:47;;;;;;;18.20;4.35;;;23.40;89.20;;;;;;5052794;28;20076;-71
2022/05/30 04:18:13;;;;;;;16.35;4.07;;;23.60;89.10;;;;;;5052988;28;20021;-70
2022/05/30 04:20:41;;;;;;;20.00;5.03;;;23.60;89.00;;;;;;5054496;28;20025;-72
2022/05/30 04:23:07;;;;;;;15.38;4.18;;;23.60;89.10;;;;;;5053671;28;20375;-73
2022/05/30 04:25:32;;;;;;;15.85;4.78;;;23.60;89.00;;;;;;5052406;28;20381;-70
2022/05/30 04:27:58;;;;;;;16.55;4.38;;;23.60;89.00;;;;;;5052399;28;20044;-71
2022/05/30 04:30:24;;;;;;;19.15;4.50;;;23.60;89.10;;;;;;5052624;28;20033;-71
2022/05/30 04:32:50;;;;;;;18.38;4.13;;;23.60;89.10;;;;;;5035178;28;20025;-72
2022/05/30 04:35:17;;;;;;;15.73;4.57;;;23.70;89.10;;;;;;5052839;28;20055;-71
2022/05/30 04:37:45;;;;;;;15.73;4.60;;;23.70;89.30;;;;;;5052935;28;20351;-70
2022/05/30 04:40:13;;;;;;;22.85;4.22;;;23.70;89.20;;;;;;5052459;28;20025;-71
2022/05/30 04:42:39;;;;;;;17.98;4.35;;;23.70;89.30;;;;;;5034586;28;20025;-70
2022/05/30 04:45:06;;;;;;;14.35;4.05;;;23.70;89.30;;;;;;5055885;28;20025;-71
2022/05/30 04:47:36;;;;;;;20.55;4.72;;;23.80;89.20;;;;;;5056648;28;20022;-71
2022/05/30 04:50:03;;;;;;;23.40;6.05;;;23.90;88.70;;;;;;5056681;28;20049;-70
2022/05/30 04:52:30;;;;;;;14.43;4.45;;;23.80;88.80;;;;;;5038500;28;20024;-70
2022/05/30 04:54:56;;;;;;;21.08;5.15;;;23.90;88.70;;;;;;5056535;28;20057;-71
2022/05/30 04:57:22;;;;;;;15.38;4.50;;;23.90;88.40;;;;;;5056334;28;20021;-71
2022/05/30 04:59:47;;;;;;;15.02;4.00;;;24.00;88.10;;;;;;5056156;28;20489;-71
2022/05/30 05:02:15;;;;;;;20.67;4.85;;;24.00;87.80;;;;;;5056415;28;20654;-71
2022/05/30 05:04:41;;;;;;;20.00;4.47;;;24.00;87.60;;;;;;5056588;28;20033;-71
2022/05/30 05:07:08;;;;;;;17.27;4.13;;;24.10;87.60;;;;;;5056086;28;20103;-71
2022/05/30 05:09:40;;;;;;;15.70;4.28;;;24.10;86.90;;;;;;5056153;28;20419;-72
2022/05/30 05:12:06;;;;;;;22.73;4.55;;;24.10;86.80;;;;;;5056512;28;20036;-71
2022/05/30 05:14:32;;;;;;;14.48;3.78;;;24.10;86.80;;;;;;5056227;28;20078;-70
2022/05/30 05:16:58;;;;;;;15.25;4.18;;;24.10;86.30;;;;;;5056402;28;20041;-71
2022/05/30 05:19:24;;;;;;;20.98;4.57;;;24.20;86.00;;;;;;5055885;28;20120;-72
2022/05/30 05:21:50;;;;;;;17.45;4.55;;;24.30;85.70;;;;;;5055982;28;20021;-72
2022/05/30 05:24:16;;;;;;;14.27;4.03;;;24.30;85.30;;;;;;5055822;28;20029;-72
2022/05/30 05:26:47;;;;;;;16.00;4.53;;;24.40;85.00;;;;;;5056029;28;20040;-71
2022/05/30 05:29:13;;;;;;;17.80;4.20;;;24.50;84.50;;;;;;5056149;28;20091;-72
2022/05/30 05:31:39;;;;;;;17.67;4.65;;;24.50;84.10;;;;;;5054822;28;20121;-73
2022/05/30 05:34:09;;;;;;;17.30;4.38;;;24.50;84.00;;;;;;5055523;28;20470;-70
2022/05/30 05:36:38;;;;;;;21.67;4.80;;;24.50;83.60;;;;;;5055496;28;20028;-72
2022/05/30 05:39:05;;;;;;;20.25;4.53;;;24.50;83.40;;;;;;5054211;28;20122;-71
2022/05/30 05:41:31;;;;;;;18.10;4.65;;;24.50;83.50;;;;;;5055381;28;20032;-71
2022/05/30 05:43:57;;;;;;;18.02;5.50;;;24.60;83.30;;;;;;5055115;28;20013;-72
2022/05/30 05:46:27;;;;;;;18.27;5.43;;;24.70;82.70;;;;;;5055304;28;20017;-72
2022/05/30 05:48:54;;;;;;;20.75;5.32;;;24.90;82.20;;;;;;5036797;28;20037;-75
2022/05/30 05:51:21;;;;;;;18.55;4.68;;;25.00;80.90;;;;;;5054317;28;20044;-72
2022/05/30 05:53:48;;;;;;;20.13;4.55;;;25.10;80.00;;;;;;5054708;28;20359;-77
2022/05/30 05:56:28;;;;;;;20.20;4.90;;;25.50;79.20;;;;;;5054424;28;20019;-76
2022/05/30 05:58:54;;;;;;;16.27;4.25;;;25.80;78.20;;;;;;5055308;28;20549;-72
2022/05/30 06:01:24;;;;;;;20.65;4.78;;;26.20;76.90;;;;;;5055319;28;20029;-75
2022/05/30 06:03:58;;;;;;;19.88;4.90;;;26.50;75.30;;;;;;5055249;28;20109;-81
2022/05/30 06:06:26;;;;;;;24.13;4.97;;;26.80;74.30;;;;;;5054957;28;20087;-70
2022/05/30 06:08:53;;;;;;;15.18;4.55;;;27.10;73.00;;;;;;5054544;28;20094;-72
2022/05/30 06:11:21;;;;;;;16.80;3.92;;;27.50;71.40;;;;;;5040587;28;20028;-69
2022/05/30 06:13:47;;;;;;;13.18;3.58;;;27.90;69.60;;;;;;5045326;28;20109;-70
2022/05/30 06:16:20;;;;;;;13.98;3.88;;;28.20;68.30;;;;;;5033714;28;20052;-72
2022/05/30 06:18:46;;;;;;;17.08;4.22;;;28.30;68.00;;;;;;5040965;28;20055;-73
2022/05/30 06:21:12;;;;;;;19.58;4.50;;;28.20;67.00;;;;;;5044772;28;20040;-71
2022/05/30 06:23:38;;;;;;;18.95;4.53;;;28.20;66.90;;;;;;5047051;28;20032;-71
2022/05/30 06:26:06;;;;;;;16.20;3.78;;;28.40;66.30;;;;;;5044279;28;20029;-67
2022/05/30 06:28:32;;;;;;;19.42;4.55;;;28.70;65.60;;;;;;5026216;28;20021;-69
2022/05/30 06:30:58;;;;;;;19.70;4.53;;;28.90;64.30;;;;;;5040870;28;20056;-72
2022/05/30 06:33:23;;;;;;;20.15;4.80;;;29.10;63.20;;;;;;5040772;28;20036;-70
2022/05/30 06:35:49;;;;;;;17.17;4.50;;;29.30;62.30;;;;;;5039427;28;20028;-71
2022/05/30 06:38:16;;;;;;;21.17;4.32;;;29.40;62.10;;;;;;5039116;28;20029;-70
2022/05/30 06:40:43;;;;;;;26.60;4.95;;;29.50;61.20;;;;;;5038908;28;20041;-68
2022/05/30 06:43:09;;;;;;;15.68;4.45;;;29.60;61.00;;;;;;5039034;28;20020;-71
2022/05/30 06:45:36;;;;;;;17.23;4.28;;;29.70;60.10;;;;;;5038953;28;20430;-69
2022/05/30 06:48:02;;;;;;;20.58;4.55;;;29.90;59.90;;;;;;5039130;28;20140;-72
2022/05/30 06:50:28;;;;;;;21.65;5.63;;;30.00;59.10;;;;;;5037941;28;20052;-70
2022/05/30 06:52:53;;;;;;;21.27;5.50;;;30.00;58.50;;;;;;5039109;28;20056;-70
2022/05/30 06:55:20;;;;;;;19.67;4.72;;;30.10;58.20;;;;;;5039187;28;20070;-69
2022/05/30 07:00:31;;;;;;;21.85;5.82;;;30.10;56.70;;;;;;5038714;28;20036;-72
2022/05/30 07:02:58;;;;;;;22.17;5.07;;;30.10;58.50;;;;;;5040741;28;20021;-73
2022/05/30 07:05:25;;;;;;;17.50;4.10;;;30.10;57.60;;;;;;5038086;28;20041;-77
2022/05/30 07:07:55;;;;;;;13.52;3.97;;;30.10;57.30;;;;;;5036480;28;20119;-74
2022/05/30 07:10:23;;;;;;;17.00;4.35;;;30.00;56.80;;;;;;5040367;28;20044;-74
2022/05/30 07:12:49;;;;;;;18.83;4.35;;;29.90;57.00;;;;;;5038686;28;20029;-73
2022/05/30 07:15:15;;;;;;;17.25;4.13;;;29.90;57.10;;;;;;5038552;28;20045;-77
2022/05/30 07:17:41;;;;;;;12.60;3.55;;;29.90;56.50;;;;;;5040510;28;20039;-73
2022/05/30 07:20:09;;;;;;;17.42;4.57;;;29.80;56.40;;;;;;5038960;28;20029;-73
2022/05/30 07:22:34;;;;;;;17.92;4.25;;;29.90;55.70;;;;;;5042409;28;20071;-75
2022/05/30 07:25:00;;;;;;;15.13;4.15;;;30.00;55.90;;;;;;5041201;28;20036;-72
2022/05/30 07:27:26;;;;;;;16.30;3.70;;;30.10;55.20;;;;;;5039088;28;20027;-73
2022/05/30 07:29:52;;;;;;;11.93;3.50;;;30.10;54.30;;;;;;5039006;28;20572;-74
2022/05/30 07:32:18;;;;;;;14.80;3.90;;;30.10;53.70;;;;;;5019635;28;20023;-71
2022/05/30 07:34:44;;;;;;;13.02;3.50;;;30.10;53.50;;;;;;5036043;28;20651;-73
2022/05/30 07:37:10;;;;;;;13.70;3.75;;;30.10;53.70;;;;;;5036485;28;20120;-72
2022/05/30 07:39:39;;;;;;;11.85;3.20;;;30.10;53.60;;;;;;5032024;28;20041;-72
2022/05/30 07:42:05;;;;;;;9.65;3.50;;;30.10;53.00;;;;;;5038654;28;20024;-71
2022/05/30 07:44:32;;;;;;;13.65;3.55;;;30.00;52.30;;;;;;5040370;28;20037;-71
2022/05/30 07:46:59;;;;;;;13.35;3.38;;;29.90;51.90;;;;;;5038465;28;20497;-71
2022/05/30 07:49:25;;;;;;;20.95;4.20;;;30.00;51.60;;;;;;5039043;28;20044;-73
2022/05/30 07:51:50;;;;;;;15.05;3.65;;;29.90;51.00;;;;;;5038744;28;20062;-71
2022/05/30 07:54:16;;;;;;;10.88;3.38;;;29.90;51.30;;;;;;5040746;28;20115;-72
2022/05/30 07:56:42;;;;;;;12.93;3.55;;;29.90;50.90;;;;;;5038323;28;20048;-70
2022/05/30 07:59:08;;;;;;;15.73;3.53;;;29.90;50.60;;;;;;5040167;28;20086;-71
2022/05/30 08:01:34;;;;;;;12.48;3.20;;;29.80;50.70;;;;;;5038547;28;20447;-72
2022/05/30 08:04:01;;;;;;;12.43;3.20;;;29.80;50.20;;;;;;5040488;28;20069;-74
2022/05/30 08:06:28;;;;;;;10.65;2.95;;;29.60;49.40;;;;;;5038527;28;20028;-73
2022/05/30 08:08:54;;;;;;;13.15;3.05;;;29.40;50.60;;;;;;5038927;28;20056;-70
2022/05/30 08:11:21;;;;;;;10.02;2.80;;;29.20;49.50;;;;;;5038707;28;20021;-72
2022/05/30 08:13:47;;;;;;;8.95;2.97;;;29.20;48.80;;;;;;5022384;28;20140;-71
2022/05/30 08:16:16;;;;;;;11.88;3.33;;;29.20;48.90;;;;;;5052070;28;20021;-70
2022/05/30 08:18:42;;;;;;;13.13;2.65;;;29.20;49.60;;;;;;5052062;28;20045;-70
2022/05/30 08:21:08;;;;;;;8.95;2.70;;;29.20;49.20;;;;;;5052432;28;20363;-71
2022/05/30 08:23:33;;;;;;;12.48;3.15;;;29.10;49.40;;;;;;5052300;28;20079;-71
2022/05/30 08:26:00;;;;;;;9.18;3.05;;;29.00;49.50;;;;;;5052135;28;20532;-70
2022/05/30 08:28:26;;;;;;;16.85;3.38;;;28.90;48.90;;;;;;5052290;28;20052;-71
2022/05/30 08:30:53;;;;;;;9.10;2.92;;;28.80;49.70;;;;;;5034291;28;20045;-73
2022/05/30 08:33:20;;;;;;;11.23;2.47;;;28.80;49.70;;;;;;5034557;28;20036;-74
2022/05/30 08:35:47;;;;;;;11.77;2.85;;;28.80;48.50;;;;;;5052234;28;20049;-72
2022/05/30 08:38:14;;;;;;;12.27;2.53;;;28.70;47.70;;;;;;5052283;28;20021;-71
2022/05/30 08:43:36;;;;;;;14.00;3.42;;;28.70;49.00;;;;;;5038760;28;20032;-73
2022/05/30 08:46:19;;;;;;;11.30;2.90;;;28.60;48.90;;;;;;5038209;28;20025;-72
2022/05/30 08:48:57;;;;;;;;;;;28.50;47.10;;;;;;5038209;28;20506;-72
2022/05/30 08:51:28;;;;;;;15.38;3.70;;;28.50;47.40;;;;;;5039905;28;19924;-71
2022/05/30 08:54:33;;;;;;;12.65;3.45;;;28.50;49.50;;;;;;5037441;28;20041;-72
2022/05/30 08:57:03;;;;;;;9.52;2.83;;;28.40;47.60;;;;;;5037470;28;20037;-73
2022/05/30 08:59:59;;;;;;;14.88;3.15;;;28.40;48.60;;;;;;5003220;28;20128;-75
2022/05/30 09:02:32;;;;;;;8.60;2.75;;;28.40;48.20;;;;;;5037971;28;20130;-75
2022/05/30 09:05:23;;;;;;;13.32;3.55;;;28.40;48.60;;;;;;5038840;28;20033;-73
2022/05/30 09:07:52;;;;;;;7.95;3.00;;;28.30;46.80;;;;;;5036390;28;20031;-73
2022/05/30 09:10:25;;;;;;;13.13;3.33;;;28.40;48.60;;;;;;5038026;28;20037;-75
2022/05/30 09:13:02;;;;;;;6.88;2.42;;;28.40;45.70;;;;;;5038634;28;20033;-74
2022/05/30 09:15:34;;;;;;;15.50;3.47;;;28.40;46.20;;;;;;5037609;28;20124;-75
2022/05/30 09:18:00;;;;;;;12.68;2.90;;;28.40;47.80;;;;;;5038034;28;20423;-74
2022/05/30 09:20:28;;;;;;;11.48;3.17;;;28.40;47.90;;;;;;5037865;28;20160;-72
2022/05/30 09:22:54;;;;;;;8.15;2.75;;;28.50;48.80;;;;;;5038222;28;20033;-74
2022/05/30 09:28:09;;;;;;;10.95;2.97;;;28.50;48.70;;;;;;5036604;28;20099;-71
2022/05/30 09:30:51;;;;;;;11.88;2.95;;;28.50;48.70;;;;;;5019175;28;20160;-72
2022/05/30 09:33:36;;;;;;;12.55;3.35;;;28.40;46.90;;;;;;5040747;28;20029;-75
2022/05/30 09:36:24;;;;;;;10.32;3.13;;;28.50;48.30;;;;;;5040513;28;20029;-73
2022/05/30 09:38:57;;;;;;;14.45;4.00;;;28.50;47.40;;;;;;5041160;28;20025;-74
2022/05/30 09:41:43;;;;;;;11.77;3.00;;;28.60;48.80;;;;;;5041475;28;20033;-75
2022/05/30 09:44:18;;;;;;;9.50;2.50;;;28.60;47.80;;;;;;5034263;28;20651;-74
2022/05/30 09:46:43;;;;;;;9.45;2.95;;;28.60;47.40;;;;;;5021635;28;20088;-70
2022/05/30 09:49:16;;;;;;;13.02;3.00;;;28.70;47.60;;;;;;5039814;28;20155;-73
2022/05/30 09:51:45;;;;;;;12.63;2.83;;;28.80;47.70;;;;;;5040444;28;20893;-73
2022/05/30 09:54:23;;;;;;;12.63;2.97;;;28.80;47.10;;;;;;5040310;28;20041;-73
2022/05/30 09:56:52;;;;;;;13.30;2.97;;;28.80;47.30;;;;;;5022520;28;20072;-72
2022/05/30 09:59:38;;;;;;;12.25;2.97;;;28.80;47.60;;;;;;5040625;28;20044;-74
2022/05/30 10:02:23;;;;;;;11.38;3.08;;;28.80;47.30;;;;;;5040141;28;20024;-73
2022/05/30 10:05:29;;;;;;;11.55;2.63;;;28.80;46.80;;;;;;5022400;28;20037;-72
2022/05/30 10:07:58;;;;;;;13.52;2.80;;;28.80;47.10;;;;;;5036590;28;20072;-72
2022/05/30 10:10:37;;;;;;;7.85;2.22;;;28.90;47.40;;;;;;5040416;28;20028;-73
2022/05/30 10:13:06;;;;;;;12.43;2.88;;;28.90;46.50;;;;;;5041117;28;20029;-71
2022/05/30 10:15:35;;;;;;;16.38;2.78;;;28.90;46.40;;;;;;5022410;28;20048;-73
2022/05/30 10:18:13;;;;;;;12.35;3.13;;;28.90;47.70;;;;;;5039153;28;20056;-72
2022/05/30 10:20:52;;;;;;;22.35;5.20;;;28.90;46.80;;;;;;5039893;28;20037;-74
2022/05/30 10:30:17;;;;;;;16.48;5.28;;;29.10;46.60;;;;;;5024865;28;20063;-75
2022/05/30 10:33:04;;;;;;;11.57;2.97;;;29.20;46.90;;;;;;5040724;28;20470;-71
2022/05/30 10:36:12;;;;;;;23.73;6.28;;;29.10;46.50;;;;;;5039310;28;20049;-71
2022/05/30 10:38:59;;;;;;;16.10;5.18;;;29.20;46.90;;;;;;5025281;28;20068;-72
2022/05/30 10:41:35;;;;;;;18.15;4.38;;;29.20;46.90;;;;;;5040319;28;20029;-71
2022/05/30 10:44:21;;;;;;;19.58;5.13;;;29.30;48.20;;;;;;5038968;28;20067;-71
2022/05/30 10:47:12;;;;;;;18.75;4.03;;;29.40;47.00;;;;;;5020910;28;20525;-70
2022/05/30 10:49:43;;;;;;;18.98;5.88;;;29.50;46.80;;;;;;5038798;28;21747;-69
2022/05/30 10:52:24;;;;;;;17.13;3.67;;;29.60;48.40;;;;;;5039149;28;20102;-70
2022/05/30 10:54:57;;;;;;;10.75;2.90;;;29.70;46.40;;;;;;5038057;28;20024;-68
2022/05/30 10:57:33;;;;;;;19.35;5.72;;;29.80;47.00;;;;;;5021049;28;20041;-70
2022/05/30 11:00:09;;;;;;;19.30;4.63;;;29.90;46.50;;;;;;5039514;28;20113;-72
2022/05/30 11:02:48;;;;;;;13.30;3.78;;;30.00;47.70;;;;;;5039081;28;20065;-70
2022/05/30 11:05:39;;;;;;;20.02;4.28;;;30.00;45.90;;;;;;5038796;28;21432;-70
2022/05/30 11:08:34;;;;;;;13.50;3.70;;;30.00;45.80;;;;;;5038867;28;20045;-71
2022/05/30 11:11:18;;;;;;;12.32;3.08;;;30.10;45.90;;;;;;5038884;28;20505;-71
2022/05/30 11:13:50;;;;;;;11.52;3.58;;;30.20;45.80;;;;;;5039097;28;20509;-70
2022/05/30 11:16:39;;;;;;;15.07;3.70;;;30.20;46.60;;;;;;5038467;28;20080;-70
2022/05/30 11:19:21;;;;;;;11.30;2.53;;;30.20;45.00;;;;;;5039092;28;20480;-70
2022/05/30 11:21:55;;;;;;;10.43;3.17;;;30.20;44.80;;;;;;5038086;28;20052;-70
2022/05/30 11:24:21;;;;;;;16.50;3.58;;;30.20;45.30;;;;;;5038639;28;20029;-70
2022/05/30 11:27:10;;;;;;;13.18;3.33;;;30.30;46.20;;;;;;5038996;28;20047;-71
2022/05/30 11:29:36;;;;;;;16.85;3.15;;;30.40;46.00;;;;;;5019543;28;20510;-72
2022/05/30 11:32:10;;;;;;;13.25;3.63;;;30.40;45.50;;;;;;5038095;28;20044;-72
2022/05/30 11:34:55;;;;;;;14.57;3.40;;;30.40;45.60;;;;;;5020109;28;20421;-71
2022/05/30 11:37:48;;;;;;;12.13;3.53;;;30.50;45.90;;;;;;5037845;28;20098;-72
2022/05/30 11:40:14;;;;;;;10.20;3.03;;;30.50;44.80;;;;;;5037775;28;20409;-70
2022/05/30 11:42:59;;;;;;;14.75;3.20;;;30.50;45.10;;;;;;5038016;28;20040;-69
2022/05/30 11:45:54;;;;;;;8.38;2.53;;;30.50;44.00;;;;;;5037737;28;20064;-70
2022/05/30 11:48:35;;;;;;;10.65;3.13;;;30.60;43.00;;;;;;5037558;28;20504;-72
2022/05/30 11:51:20;;;;;;;8.70;2.80;;;30.60;42.30;;;;;;5037763;28;20100;-70
2022/05/30 11:54:23;;;;;;;14.73;3.08;;;30.50;41.80;;;;;;5037129;28;20035;-71
2022/05/30 11:57:16;;;;;;;9.77;2.78;;;30.50;40.80;;;;;;4975556;28;20517;-70
2022/05/30 11:59:56;;;;;;;10.93;2.47;;;30.40;41.80;;;;;;5037508;28;20079;-69
2022/05/30 12:02:49;;;;;;;12.95;2.92;;;30.40;41.30;;;;;;5038419;28;20040;-70
2022/05/30 12:05:40;;;;;;;10.38;3.00;;;30.40;40.90;;;;;;5019718;28;20048;-72
2022/05/30 12:08:32;;;;;;;10.20;2.83;;;30.50;41.20;;;;;;5037674;28;20151;-71
2022/05/30 12:11:27;;;;;;;23.00;3.90;;;30.50;42.00;;;;;;5037186;28;20028;-72
2022/05/30 12:14:17;;;;;;;12.80;3.03;;;30.50;41.10;;;;;;5037541;28;20063;-72
2022/05/30 12:16:46;;;;;;;14.02;2.92;;;30.50;40.60;;;;;;5037145;28;20139;-72
2022/05/30 12:25:01;;;;;;;11.73;2.90;;;30.60;44.00;;;;;;5038216;28;20036;-70
2022/05/30 12:27:30;;;;;;;17.90;3.40;;;30.60;42.90;;;;;;5037387;28;20086;-71
2022/05/30 12:29:56;;;;;;;13.20;3.13;;;30.60;42.80;;;;;;5019433;28;20082;-71
2022/05/30 12:32:23;;;;;;;13.32;3.45;;;30.60;45.10;;;;;;5038114;28;20063;-71
2022/05/30 12:35:00;;;;;;;13.20;3.08;;;30.70;42.10;;;;;;5037533;28;20033;-72
2022/05/30 12:37:44;;;;;;;12.85;3.25;;;30.70;42.30;;;;;;5038243;28;20052;-69
2022/05/30 12:40:53;;;;;;;10.88;2.40;;;30.70;41.20;;;;;;5037795;28;21107;-71
2022/05/30 12:43:24;;;;;;;11.93;2.80;;;30.80;40.90;;;;;;5036999;28;20037;-70
2022/05/30 12:45:55;;;;;;;10.60;2.47;;;30.80;41.20;;;;;;5036846;28;20033;-71
2022/05/30 12:48:40;;;;;;;9.85;2.72;;;30.80;40.40;;;;;;5037458;28;20033;-72
2022/05/30 12:51:27;;;;;;;9.45;2.60;;;30.90;40.30;;;;;;5037139;28;20405;-71
2022/05/30 12:53:59;;;;;;;7.75;2.28;;;30.90;39.20;;;;;;5037554;28;20090;-70
2022/05/30 12:56:39;;;;;;;8.75;2.22;;;31.00;39.40;;;;;;5037657;28;20033;-73
2022/05/30 12:59:11;;;;;;;10.55;2.45;;;31.00;38.90;;;;;;5036810;28;20030;-70
2022/05/30 13:01:43;;;;;;;10.52;2.33;;;31.10;38.50;;;;;;5037785;28;20135;-69
2022/05/30 13:04:22;;;;;;;12.38;2.80;;;31.00;37.10;;;;;;5019527;28;20037;-72
2022/05/30 13:06:54;;;;;;;9.98;2.50;;;31.00;37.50;;;;;;5041201;28;20505;-71
2022/05/30 13:09:28;;;;;;;14.23;3.10;;;31.00;36.90;;;;;;5041531;28;20041;-74
2022/05/30 13:12:09;;;;;;;15.10;3.53;;;31.00;38.00;;;;;;5042426;28;20390;-70
2022/05/30 13:14:40;;;;;;;13.02;2.22;;;31.00;39.30;;;;;;5041804;28;20155;-71
2022/05/30 13:17:23;;;;;;;9.95;2.47;;;31.10;39.00;;;;;;5041987;28;20033;-72
2022/05/30 13:19:51;;;;;;;9.68;2.63;;;31.10;38.60;;;;;;5042479;28;20057;-70
2022/05/30 13:22:22;;;;;;;8.85;1.98;;;31.20;38.10;;;;;;5041512;28;20590;-70
2022/05/30 13:24:47;;;;;;;9.73;2.38;;;31.20;37.70;;;;;;5040595;28;20056;-72
2022/05/30 13:27:13;;;;;;;7.32;2.30;;;31.20;37.30;;;;;;5023058;28;20071;-69
2022/05/30 13:29:40;;;;;;;9.60;2.10;;;31.20;37.70;;;;;;5040296;28;20033;-73
2022/05/30 13:32:13;;;;;;;7.40;2.05;;;31.20;37.40;;;;;;5041467;28;20025;-69